createdAt,value
2019-04-21T00:00:35.482Z,94.70
2019-04-21T00:01:38.771Z,94.60
2019-04-21T00:02:38.092Z,94.98
2019-04-21T00:03:40.697Z,94.79
2019-04-21T00:04:46.879Z,94.60
2019-04-21T00:05:57.140Z,94.51
2019-04-21T00:06:58.789Z,95.17
2019-04-21T00:08:03.635Z,95.56
2019-04-21T00:08:56.493Z,95.46
2019-04-21T00:10:59.453Z,95.94
2019-04-21T00:11:55.606Z,95.46
2019-04-21T00:12:52.286Z,95.46
2019-04-21T00:13:46.799Z,95.70
2019-04-21T00:14:47.146Z,95.60
2019-04-21T00:15:40.654Z,95.41
2019-04-21T00:16:44.367Z,95.89
2019-04-21T00:17:36.811Z,96.46
2019-04-21T00:18:42.578Z,96.46
2019-04-21T00:19:38.563Z,96.75
2019-04-21T00:20:41.426Z,97.03
2019-04-21T00:21:43.336Z,97.51
2019-04-21T00:22:47.753Z,97.51
2019-04-21T00:23:55.245Z,96.17
2019-04-21T00:24:50.155Z,96.08
2019-04-21T00:25:47.887Z,96.46
2019-04-21T00:26:55.364Z,96.27
2019-04-21T00:27:50.385Z,96.17
2019-04-21T00:28:59.238Z,97.13
2019-04-21T00:29:51.875Z,97.51
2019-04-21T00:30:58.081Z,97.70
2019-04-21T00:31:51.426Z,98.18
2019-04-21T00:32:50.227Z,97.51
2019-04-21T00:33:39.856Z,96.75
2019-04-21T00:34:36.385Z,96.84
2019-04-21T00:35:45.295Z,97.13
2019-04-21T00:36:47.565Z,96.55
2019-04-21T00:37:54.663Z,97.31
2019-04-21T00:39:09.625Z,97.70
2019-04-21T00:40:02.236Z,98.74
2019-04-21T00:41:02.554Z,99.89
2019-04-21T00:41:57.711Z,99.99
2019-04-21T00:42:58.535Z,99.99
2019-04-21T00:43:51.906Z,99.99
2019-04-21T00:44:56.615Z,99.99
2019-04-21T00:45:49.142Z,99.99
2019-04-21T00:46:53.179Z,99.99
2019-04-21T00:48:02.339Z,99.99
2019-04-21T00:48:57.442Z,99.99
2019-04-21T00:50:00.274Z,99.99
2019-04-21T00:51:12.630Z,99.99
2019-04-21T00:52:11.438Z,99.99
2019-04-21T00:53:02.253Z,99.99
2019-04-21T00:54:05.759Z,99.99
2019-04-21T00:55:10.570Z,99.99
2019-04-21T00:56:03.263Z,99.99
2019-04-21T00:57:05.371Z,99.99
2019-04-21T00:58:03.484Z,98.94
2019-04-21T00:58:59.934Z,97.22
2019-04-21T01:00:00.913Z,96.55
2019-04-21T01:00:57.047Z,96.12
2019-04-21T01:01:53.862Z,96.89
2019-04-21T01:03:04.629Z,96.22
2019-04-21T01:04:06.646Z,97.22
2019-04-21T01:05:06.173Z,98.08
2019-04-21T01:05:56.120Z,98.18
2019-04-21T01:07:05.292Z,98.94
2019-04-21T01:08:01.409Z,99.13
2019-04-21T01:08:59.552Z,99.99
2019-04-21T01:09:54.558Z,99.99
2019-04-21T01:10:51.474Z,99.99
2019-04-21T01:12:01.285Z,99.99
2019-04-21T01:13:04.000Z,99.99
2019-04-21T01:14:05.586Z,99.99
2019-04-21T01:15:04.676Z,99.65
2019-04-21T01:15:59.423Z,99.17
2019-04-21T01:16:51.671Z,99.17
2019-04-21T01:17:56.053Z,98.98
2019-04-21T01:19:03.585Z,99.93
2019-04-21T01:19:55.997Z,99.99
2019-04-21T01:20:38.747Z,99.99
2019-04-21T01:21:38.856Z,99.99
2019-04-21T01:22:38.841Z,99.99
2019-04-21T01:23:40.176Z,99.99
2019-04-21T01:24:43.055Z,99.99
2019-04-21T01:25:44.882Z,99.99
2019-04-21T01:26:47.723Z,99.99
2019-04-21T01:27:54.142Z,99.99
2019-04-21T01:28:58.365Z,99.99
2019-04-21T01:29:59.743Z,99.99
2019-04-21T01:30:56.883Z,99.99
2019-04-21T01:32:06.245Z,99.99
2019-04-21T01:33:00.085Z,99.99
2019-04-21T01:34:03.071Z,99.99
2019-04-21T01:35:02.717Z,99.99
2019-04-21T01:35:58.085Z,99.99
2019-04-21T01:37:01.463Z,99.99
2019-04-21T01:38:04.960Z,99.99
2019-04-21T01:39:02.166Z,99.99
2019-04-21T01:40:02.528Z,99.99
2019-04-21T01:41:21.354Z,99.99
2019-04-21T01:41:58.378Z,99.99
2019-04-21T01:42:55.690Z,99.99
2019-04-21T01:43:56.885Z,99.99
2019-04-21T01:45:02.334Z,99.99
2019-04-21T01:46:04.651Z,99.99
2019-04-21T01:46:53.272Z,99.99
2019-04-21T01:47:57.510Z,99.99
2019-04-21T01:48:58.018Z,99.99
2019-04-21T01:49:50.157Z,99.99
2019-04-21T01:50:55.479Z,99.99
2019-04-21T01:52:10.059Z,99.99
2019-04-21T01:53:02.109Z,99.99
2019-04-21T01:54:05.158Z,99.99
2019-04-21T01:55:00.232Z,99.99
2019-04-21T01:56:00.574Z,99.99
2019-04-21T01:57:01.627Z,99.99
2019-04-21T01:58:00.425Z,99.99
2019-04-21T01:58:51.752Z,99.99
2019-04-21T01:59:53.005Z,99.99
2019-04-21T02:00:56.782Z,99.99
2019-04-21T02:02:02.281Z,99.99
2019-04-21T02:03:19.233Z,99.99
2019-04-21T02:04:00.051Z,99.99
2019-04-21T02:05:01.120Z,99.99
2019-04-21T02:06:09.749Z,99.99
2019-04-21T02:07:04.307Z,99.99
2019-04-21T02:08:01.114Z,99.99
2019-04-21T02:08:53.220Z,99.99
2019-04-21T02:10:09.171Z,99.99
2019-04-21T02:11:05.202Z,99.99
2019-04-21T02:12:01.312Z,99.99
2019-04-21T02:13:03.611Z,99.99
2019-04-21T02:14:10.201Z,99.99
2019-04-21T02:15:08.013Z,99.99
2019-04-21T02:16:06.816Z,99.99
2019-04-21T02:17:09.935Z,99.99
2019-04-21T02:17:59.696Z,99.99
2019-04-21T02:18:59.135Z,99.99
2019-04-21T02:19:56.211Z,99.99
2019-04-21T02:20:55.381Z,99.99
2019-04-21T02:21:55.283Z,99.99
2019-04-21T02:24:07.068Z,99.99
2019-04-21T02:25:11.017Z,99.99
2019-04-21T02:26:05.017Z,99.99
2019-04-21T02:27:07.126Z,99.99
2019-04-21T02:28:06.163Z,99.99
2019-04-21T02:29:10.115Z,99.99
2019-04-21T02:30:16.398Z,99.99
2019-04-21T02:31:22.773Z,99.99
2019-04-21T02:32:31.509Z,99.99
2019-04-21T02:33:32.419Z,99.99
2019-04-21T02:35:20.841Z,99.99
2019-04-21T02:37:28.470Z,99.99
2019-04-21T02:40:12.873Z,99.99
2019-04-21T02:41:31.145Z,99.99
2019-04-21T02:42:09.696Z,99.99
2019-04-21T02:45:20.885Z,99.99
2019-04-21T02:46:35.293Z,99.99
2019-04-21T02:47:19.122Z,99.99
2019-04-21T02:49:22.848Z,99.99
2019-04-21T02:50:21.265Z,99.99
2019-04-21T02:52:27.437Z,99.99
2019-04-21T02:53:18.408Z,99.99
2019-04-21T02:56:17.987Z,99.99
2019-04-21T02:58:16.066Z,99.99
2019-04-21T02:59:15.065Z,99.99
2019-04-21T03:00:18.746Z,99.99
2019-04-21T03:01:23.871Z,99.99
2019-04-21T03:02:17.241Z,99.99
2019-04-21T03:03:15.041Z,99.99
2019-04-21T03:05:24.352Z,99.99
2019-04-21T03:06:15.334Z,99.99
2019-04-21T03:08:14.354Z,99.99
2019-04-21T03:09:18.280Z,99.99
2019-04-21T03:10:18.249Z,99.99
2019-04-21T03:13:26.639Z,99.99
2019-04-21T03:14:25.155Z,99.99
2019-04-21T03:16:22.884Z,99.99
2019-04-21T03:17:22.381Z,99.99
2019-04-21T03:18:15.010Z,99.99
2019-04-21T03:19:17.638Z,99.99
2019-04-21T03:20:16.984Z,99.99
2019-04-21T03:21:15.831Z,99.99
2019-04-21T03:23:18.970Z,99.99
2019-04-21T03:24:24.725Z,99.99
2019-04-21T03:25:25.126Z,99.99
2019-04-21T03:26:28.606Z,99.99
2019-04-21T03:28:22.672Z,99.99
2019-04-21T03:29:20.338Z,99.99
2019-04-21T03:30:33.308Z,99.99
2019-04-21T03:31:39.459Z,99.99
2019-04-21T03:34:44.364Z,99.99
2019-04-21T03:35:53.714Z,99.99
2019-04-21T03:36:42.896Z,99.99
2019-04-21T03:38:19.136Z,99.99
2019-04-21T03:39:07.704Z,99.99
2019-04-21T03:40:15.195Z,99.99
2019-04-21T03:42:27.175Z,99.99
2019-04-21T03:43:21.348Z,99.99
2019-04-21T03:44:22.928Z,99.99
2019-04-21T03:45:25.092Z,99.99
2019-04-21T03:46:20.722Z,99.99
2019-04-21T03:47:22.921Z,99.99
2019-04-21T03:48:24.237Z,99.99
2019-04-21T03:49:29.887Z,99.99
2019-04-21T03:50:13.409Z,99.99
2019-04-21T03:51:23.149Z,99.99
2019-04-21T03:53:18.572Z,99.99
2019-04-21T03:54:15.626Z,99.99
2019-04-21T03:55:46.841Z,99.99
2019-04-21T03:56:45.358Z,99.99
2019-04-21T03:57:43.694Z,99.99
2019-04-21T03:58:26.025Z,99.99
2019-04-21T03:59:14.211Z,99.99
2019-04-21T04:00:34.659Z,99.99
2019-04-21T04:02:26.334Z,99.99
2019-04-21T04:05:31.313Z,99.99
2019-04-21T04:07:22.921Z,99.99
2019-04-21T04:08:39.608Z,99.99
2019-04-21T04:12:13.395Z,99.99
2019-04-21T04:13:34.000Z,99.99
2019-04-21T04:15:24.422Z,99.99
2019-04-21T04:16:19.621Z,99.99
2019-04-21T04:17:18.346Z,99.99
2019-04-21T04:18:28.000Z,99.99
2019-04-21T04:19:18.609Z,99.99
2019-04-21T04:22:19.428Z,99.99
2019-04-21T04:23:20.647Z,99.99
2019-04-21T04:24:24.075Z,99.99
2019-04-21T04:26:26.247Z,99.99
2019-04-21T04:27:33.660Z,99.99
2019-04-21T04:28:19.495Z,99.99
2019-04-21T04:29:20.396Z,99.99
2019-04-21T04:30:25.324Z,99.99
2019-04-21T04:32:25.187Z,99.99
2019-04-21T04:33:30.398Z,99.99
2019-04-21T04:34:21.834Z,99.99
2019-04-21T04:35:25.913Z,99.99
2019-04-21T04:39:36.252Z,99.99
2019-04-21T04:40:26.727Z,99.99
2019-04-21T04:43:24.917Z,99.99
2019-04-21T04:44:24.875Z,99.99
2019-04-21T04:46:22.308Z,99.99
2019-04-21T04:48:19.734Z,99.99
2019-04-21T04:49:40.122Z,99.99
2019-04-21T04:50:19.763Z,99.99
2019-04-21T04:51:25.202Z,99.99
2019-04-21T04:53:31.208Z,99.99
2019-04-21T04:54:31.588Z,99.99
2019-04-21T04:55:26.226Z,99.99
2019-04-21T04:56:20.596Z,99.99
2019-04-21T04:58:35.554Z,99.99
2019-04-21T05:00:28.151Z,99.99
2019-04-21T05:02:29.865Z,99.99
2019-04-21T05:03:27.186Z,99.99
2019-04-21T05:04:30.473Z,99.99
2019-04-21T05:06:34.509Z,99.99
2019-04-21T05:07:29.813Z,99.99
2019-04-21T05:08:33.790Z,99.99
2019-04-21T05:10:31.111Z,99.99
2019-04-21T05:11:30.487Z,99.99
2019-04-21T05:12:17.530Z,99.99
2019-04-21T05:13:26.559Z,99.99
2019-04-21T05:16:36.223Z,99.99
2019-04-21T05:18:24.372Z,99.99
2019-04-21T05:19:34.158Z,99.99
2019-04-21T05:20:20.451Z,99.99
2019-04-21T05:21:30.169Z,99.99
2019-04-21T05:23:14.430Z,99.99
2019-04-21T05:24:13.701Z,99.99
2019-04-21T05:25:08.366Z,99.99
2019-04-21T05:26:06.676Z,99.99
2019-04-21T05:27:07.335Z,99.99
2019-04-21T05:28:04.847Z,99.99
2019-04-21T05:29:01.836Z,99.99
2019-04-21T05:30:17.761Z,99.99
2019-04-21T05:31:19.779Z,99.99
2019-04-21T05:32:13.244Z,99.99
2019-04-21T05:33:18.778Z,99.99
2019-04-21T05:34:26.910Z,99.99
2019-04-21T05:35:16.924Z,99.99
2019-04-21T05:36:13.210Z,99.99
2019-04-21T05:37:18.783Z,99.99
2019-04-21T05:38:11.675Z,99.99
2019-04-21T05:39:08.931Z,99.99
2019-04-21T05:40:10.649Z,99.99
2019-04-21T05:41:06.523Z,99.99
2019-04-21T05:42:02.539Z,99.99
2019-04-21T05:43:20.208Z,99.99
2019-04-21T05:44:13.258Z,99.99
2019-04-21T05:45:24.194Z,99.99
2019-04-21T05:46:13.720Z,99.99
2019-04-21T05:47:35.517Z,99.99
2019-04-21T05:48:37.885Z,99.99
2019-04-21T05:49:15.383Z,99.99
2019-04-21T05:50:12.151Z,99.99
2019-04-21T05:51:09.006Z,99.99
2019-04-21T05:52:08.117Z,99.99
2019-04-21T05:54:22.920Z,99.99
2019-04-21T05:55:16.808Z,99.99
2019-04-21T05:56:17.357Z,99.99
2019-04-21T05:57:17.160Z,99.99
2019-04-21T05:58:13.153Z,99.99
2019-04-21T05:59:12.144Z,99.99
2019-04-21T06:00:33.470Z,99.99
2019-04-21T06:01:23.911Z,99.99
2019-04-21T06:02:24.295Z,99.99
2019-04-21T06:03:18.346Z,99.99
2019-04-21T06:04:34.467Z,99.99
2019-04-21T06:06:20.089Z,99.99
2019-04-21T06:07:18.935Z,99.99
2019-04-21T06:08:23.473Z,99.99
2019-04-21T06:09:19.050Z,99.99
2019-04-21T06:10:14.095Z,99.99
2019-04-21T06:11:17.911Z,99.99
2019-04-21T06:12:16.138Z,99.99
2019-04-21T06:13:27.507Z,99.99
2019-04-21T06:14:16.824Z,99.99
2019-04-21T06:15:14.033Z,99.99
2019-04-21T06:16:17.817Z,99.99
2019-04-21T06:17:25.290Z,99.99
2019-04-21T06:18:22.116Z,99.99
2019-04-21T06:19:23.637Z,99.99
2019-04-21T06:20:20.657Z,99.99
2019-04-21T06:21:16.542Z,99.99
2019-04-21T06:22:14.853Z,99.99
2019-04-21T06:23:21.018Z,99.99
2019-04-21T06:24:15.997Z,99.99
2019-04-21T06:25:41.027Z,99.99
2019-04-21T06:26:47.905Z,99.99
2019-04-21T06:27:23.921Z,99.99
2019-04-21T06:28:22.694Z,99.99
2019-04-21T06:29:15.230Z,99.99
2019-04-21T06:30:19.633Z,99.99
2019-04-21T06:31:19.971Z,99.99
2019-04-21T06:32:37.443Z,99.99
2019-04-21T06:33:21.024Z,99.99
2019-04-21T06:34:16.660Z,99.99
2019-04-21T06:35:36.018Z,99.99
2019-04-21T06:37:40.407Z,99.99
2019-04-21T06:38:28.470Z,99.99
2019-04-21T06:40:30.538Z,99.99
2019-04-21T06:41:26.482Z,99.99
2019-04-21T06:42:14.677Z,99.99
2019-04-21T06:44:14.906Z,99.99
2019-04-21T06:45:18.576Z,99.99
2019-04-21T06:46:25.625Z,99.99
2019-04-21T06:47:33.519Z,99.99
2019-04-21T06:48:25.892Z,99.99
2019-04-21T06:49:17.214Z,99.99
2019-04-21T06:50:22.719Z,99.99
2019-04-21T06:51:22.436Z,99.99
2019-04-21T06:52:44.882Z,99.99
2019-04-21T06:53:23.784Z,99.99
2019-04-21T06:54:22.001Z,99.99
2019-04-21T06:55:22.839Z,99.99
2019-04-21T06:56:24.021Z,99.99
2019-04-21T06:57:21.809Z,99.99
2019-04-21T06:58:19.692Z,99.84
2019-04-21T06:59:19.190Z,99.65
2019-04-21T07:00:19.592Z,99.99
2019-04-21T07:01:26.450Z,99.84
2019-04-21T07:02:39.974Z,99.99
2019-04-21T07:03:30.942Z,99.80
2019-04-21T07:05:20.398Z,99.51
2019-04-21T07:06:23.430Z,99.89
2019-04-21T07:07:19.735Z,99.04
2019-04-21T07:08:31.148Z,99.99
2019-04-21T07:09:31.407Z,99.89
2019-04-21T07:10:22.070Z,99.22
2019-04-21T07:11:18.771Z,98.75
2019-04-21T07:12:18.671Z,98.75
2019-04-21T07:13:21.324Z,99.32
2019-04-21T07:15:25.191Z,99.27
2019-04-21T07:16:19.216Z,98.61
2019-04-21T07:17:24.642Z,98.61
2019-04-21T07:18:19.176Z,98.13
2019-04-21T07:19:31.914Z,98.61
2019-04-21T07:20:17.258Z,97.46
2019-04-21T07:21:23.525Z,97.56
2019-04-21T07:22:24.679Z,97.56
2019-04-21T07:23:26.032Z,96.70
2019-04-21T07:24:29.164Z,97.13
2019-04-21T07:25:22.082Z,96.46
2019-04-21T07:26:20.311Z,96.27
2019-04-21T07:27:23.932Z,95.79
2019-04-21T07:28:27.115Z,95.22
2019-04-21T07:29:21.989Z,95.22
2019-04-21T07:30:24.576Z,95.41
2019-04-21T07:31:27.714Z,94.93
2019-04-21T07:32:22.116Z,94.70
2019-04-21T07:33:41.296Z,94.22
2019-04-21T07:34:28.758Z,93.55
2019-04-21T07:35:22.171Z,93.84
2019-04-21T07:36:32.362Z,93.07
2019-04-21T07:37:20.387Z,92.31
2019-04-21T07:38:24.701Z,92.88
2019-04-21T07:39:18.112Z,91.74
2019-04-21T07:40:15.155Z,91.26
2019-04-21T07:41:15.934Z,91.26
2019-04-21T07:42:18.692Z,91.69
2019-04-21T07:43:18.370Z,91.88
2019-04-21T07:44:13.629Z,91.69
2019-04-21T07:45:21.218Z,91.88
2019-04-21T07:46:17.345Z,91.40
2019-04-21T07:47:20.185Z,91.69
2019-04-21T07:48:19.070Z,91.30
2019-04-21T07:49:19.210Z,91.02
2019-04-21T07:50:24.802Z,90.97
2019-04-21T07:51:25.203Z,91.16
2019-04-21T07:52:25.666Z,90.88
2019-04-21T07:53:27.720Z,90.78
2019-04-21T07:54:34.117Z,91.06
2019-04-21T07:56:08.800Z,90.20
2019-04-21T07:57:17.078Z,89.63
2019-04-21T07:58:24.334Z,88.91
2019-04-21T07:59:34.270Z,88.53
2019-04-21T08:01:27.431Z,88.72
2019-04-21T08:02:23.400Z,88.62
2019-04-21T08:03:19.423Z,88.43
2019-04-21T08:04:44.809Z,87.95
2019-04-21T08:05:47.129Z,88.05
2019-04-21T08:06:31.923Z,88.62
2019-04-21T08:07:24.486Z,87.38
2019-04-21T08:08:20.893Z,86.80
2019-04-21T08:09:18.246Z,87.04
2019-04-21T08:10:24.230Z,86.66
2019-04-21T08:11:21.080Z,86.76
2019-04-21T08:12:16.227Z,86.57
2019-04-21T08:13:32.779Z,86.28
2019-04-21T08:14:24.957Z,85.94
2019-04-21T08:16:25.693Z,85.46
2019-04-21T08:17:16.444Z,85.08
2019-04-21T08:18:21.048Z,84.31
2019-04-21T08:19:32.208Z,83.83
2019-04-21T08:20:18.471Z,83.87
2019-04-21T08:21:20.632Z,83.59
2019-04-21T08:22:25.675Z,82.92
2019-04-21T08:23:25.387Z,82.53
2019-04-21T08:24:19.735Z,82.15
2019-04-21T08:25:19.340Z,81.29
2019-04-21T08:26:27.673Z,81.71
2019-04-21T08:27:25.715Z,81.52
2019-04-21T08:28:26.401Z,81.33
2019-04-21T08:29:40.874Z,79.80
2019-04-21T08:30:28.814Z,80.37
2019-04-21T08:31:46.405Z,79.93
2019-04-21T08:32:26.533Z,79.83
2019-04-21T08:33:32.481Z,79.07
2019-04-21T08:35:48.590Z,78.30
2019-04-21T08:36:28.507Z,77.92
2019-04-21T08:37:24.854Z,77.53
2019-04-21T08:38:20.066Z,77.09
2019-04-21T08:39:19.545Z,76.23
2019-04-21T08:40:31.719Z,75.56
2019-04-21T08:41:28.162Z,75.27
2019-04-21T08:42:27.066Z,75.75
2019-04-21T08:43:32.021Z,74.69
2019-04-21T08:44:26.214Z,74.83
2019-04-21T08:45:28.240Z,74.16
2019-04-21T08:46:25.648Z,73.68
2019-04-21T08:47:25.566Z,72.91
2019-04-21T08:48:25.410Z,74.01
2019-04-21T08:49:22.285Z,74.01
2019-04-21T08:50:20.923Z,71.98
2019-04-21T08:51:28.512Z,72.08
2019-04-21T08:52:44.343Z,72.37
2019-04-21T08:53:24.956Z,73.04
2019-04-21T08:55:24.933Z,70.84
2019-04-21T08:56:34.353Z,71.06
2019-04-21T08:57:33.284Z,70.01
2019-04-21T08:58:30.994Z,69.34
2019-04-21T08:59:28.921Z,68.66
2019-04-21T09:00:26.021Z,68.31
2019-04-21T09:01:33.327Z,68.31
2019-04-21T09:02:29.508Z,68.12
2019-04-21T09:03:21.360Z,66.97
2019-04-21T09:04:24.488Z,66.87
2019-04-21T09:05:23.432Z,65.94
2019-04-21T09:06:40.249Z,65.84
2019-04-21T09:07:35.899Z,65.17
2019-04-21T09:08:27.689Z,64.98
2019-04-21T09:09:22.381Z,64.60
2019-04-21T09:10:24.354Z,65.08
2019-04-21T09:11:26.184Z,64.53
2019-04-21T09:12:22.597Z,64.05
2019-04-21T09:13:24.759Z,62.99
2019-04-21T09:14:28.849Z,60.49
2019-04-21T09:15:25.250Z,60.88
2019-04-21T09:16:20.813Z,60.88
2019-04-21T09:17:21.712Z,61.16
2019-04-21T09:18:18.565Z,60.21
2019-04-21T09:19:35.285Z,60.11
2019-04-21T09:20:29.183Z,60.14
2019-04-21T09:21:28.178Z,59.56
2019-04-21T09:22:24.453Z,59.94
2019-04-21T09:23:25.656Z,59.37
2019-04-21T09:24:26.675Z,58.60
2019-04-21T09:25:26.974Z,58.31
2019-04-21T09:26:28.207Z,58.31
2019-04-21T09:27:21.842Z,57.73
2019-04-21T09:28:19.894Z,56.90
2019-04-21T09:29:15.997Z,56.90
2019-04-21T09:30:06.954Z,56.32
2019-04-21T09:31:07.127Z,56.32
2019-04-21T09:32:12.477Z,55.93
2019-04-21T09:33:07.468Z,56.35
2019-04-21T09:34:08.392Z,55.57
2019-04-21T09:35:10.745Z,55.38
2019-04-21T09:36:11.322Z,55.09
2019-04-21T09:37:23.559Z,54.80
2019-04-21T09:38:16.220Z,54.03
2019-04-21T09:39:12.992Z,54.16
2019-04-21T09:40:06.853Z,54.54
2019-04-21T09:41:12.509Z,54.54
2019-04-21T09:42:06.813Z,54.25
2019-04-21T09:43:10.340Z,54.64
2019-04-21T09:44:15.063Z,53.96
2019-04-21T09:45:10.025Z,53.58
2019-04-21T09:46:08.339Z,53.58
2019-04-21T09:47:08.810Z,53.31
2019-04-21T09:48:13.361Z,53.70
2019-04-21T09:49:12.121Z,53.89
2019-04-21T09:50:08.503Z,53.61
2019-04-21T09:51:08.589Z,53.51
2019-04-21T09:52:13.783Z,53.31
2019-04-21T09:53:16.836Z,53.63
2019-04-21T09:54:12.436Z,53.03
2019-04-21T09:55:14.328Z,53.03
2019-04-21T09:56:14.172Z,53.41
2019-04-21T09:57:18.302Z,53.22
2019-04-21T09:58:18.131Z,53.22
2019-04-21T09:59:16.523Z,53.63
2019-04-21T10:00:13.096Z,53.25
2019-04-21T10:01:19.775Z,53.05
2019-04-21T10:02:16.089Z,51.99
2019-04-21T10:03:11.964Z,51.99
2019-04-21T10:04:08.160Z,51.80
2019-04-21T10:05:08.271Z,50.84
2019-04-21T10:06:08.722Z,51.61
2019-04-21T10:07:09.033Z,51.61
2019-04-21T10:08:08.401Z,51.22
2019-04-21T10:09:13.866Z,51.03
2019-04-21T10:10:08.526Z,51.03
2019-04-21T10:11:09.860Z,50.64
2019-04-21T10:12:09.795Z,50.86
2019-04-21T10:13:08.710Z,50.38
2019-04-21T10:14:09.749Z,50.28
2019-04-21T10:15:08.834Z,49.92
2019-04-21T10:16:08.895Z,48.93
2019-04-21T10:17:08.960Z,48.64
2019-04-21T10:18:09.019Z,48.76
2019-04-21T10:19:09.081Z,46.92
2019-04-21T10:20:09.540Z,46.81
2019-04-21T10:21:09.699Z,47.09
2019-04-21T10:22:10.479Z,46.92
2019-04-21T10:23:09.329Z,46.75
2019-04-21T10:24:10.499Z,46.08
2019-04-21T10:25:10.468Z,46.17
2019-04-21T10:26:10.478Z,46.66
2019-04-21T10:27:12.202Z,46.66
2019-04-21T10:28:10.834Z,46.08
2019-04-21T10:29:19.740Z,44.94
2019-04-21T10:30:09.999Z,45.33
2019-04-21T10:31:11.010Z,45.72
2019-04-21T10:32:11.262Z,44.38
2019-04-21T10:33:10.379Z,44.48
2019-04-21T10:34:11.407Z,44.40
2019-04-21T10:35:10.953Z,43.63
2019-04-21T10:36:11.044Z,43.82
2019-04-21T10:37:11.210Z,43.27
2019-04-21T10:38:19.825Z,42.88
2019-04-21T10:39:11.499Z,42.13
2019-04-21T10:40:11.633Z,41.27
2019-04-21T10:41:11.732Z,40.23
2019-04-21T10:42:11.283Z,39.76
2019-04-21T10:43:12.014Z,39.39
2019-04-21T10:44:11.443Z,39.51
2019-04-21T10:45:10.955Z,39.03
2019-04-21T10:46:10.851Z,39.06
2019-04-21T10:47:11.138Z,37.90
2019-04-21T10:48:11.000Z,38.09
2019-04-21T10:49:11.021Z,38.17
2019-04-21T10:50:11.105Z,38.93
2019-04-21T10:51:11.157Z,39.20
2019-04-21T10:52:11.225Z,39.01
2019-04-21T10:53:11.301Z,38.79
2019-04-21T10:54:11.678Z,38.79
2019-04-21T10:55:32.167Z,37.78
2019-04-21T10:56:17.998Z,36.54
2019-04-21T10:57:12.549Z,35.58
2019-04-21T10:58:11.643Z,34.82
2019-04-21T10:59:12.094Z,34.14
2019-04-21T11:00:12.608Z,34.24
2019-04-21T11:01:12.737Z,33.61
2019-04-21T11:02:12.774Z,34.29
2019-04-21T11:03:12.993Z,34.21
2019-04-21T11:04:17.231Z,34.19
2019-04-21T11:05:12.546Z,33.62
2019-04-21T11:06:12.666Z,33.48
2019-04-21T11:07:17.580Z,33.86
2019-04-21T11:08:22.713Z,33.38
2019-04-21T11:09:13.730Z,34.12
2019-04-21T11:10:13.947Z,34.43
2019-04-21T11:11:12.556Z,34.88
2019-04-21T11:12:13.570Z,36.02
2019-04-21T11:13:12.698Z,36.13
2019-04-21T11:14:13.455Z,36.38
2019-04-21T11:15:12.856Z,37.34
2019-04-21T11:16:13.177Z,37.55
2019-04-21T11:17:14.257Z,36.63
2019-04-21T11:18:13.054Z,35.60
2019-04-21T11:19:13.784Z,35.25
2019-04-21T11:20:13.197Z,35.47
2019-04-21T11:21:13.346Z,35.11
2019-04-21T11:22:14.636Z,34.08
2019-04-21T11:23:14.230Z,34.06
2019-04-21T11:24:14.335Z,34.24
2019-04-21T11:25:13.561Z,33.93
2019-04-21T11:26:13.979Z,34.12
2019-04-21T11:27:14.996Z,33.62
2019-04-21T11:28:14.450Z,33.04
2019-04-21T11:29:14.937Z,33.06
2019-04-21T11:30:13.911Z,31.79
2019-04-21T11:31:15.358Z,31.90
2019-04-21T11:32:14.774Z,32.47
2019-04-21T11:33:15.353Z,33.31
2019-04-21T11:34:15.392Z,33.86
2019-04-21T11:35:15.061Z,34.17
2019-04-21T11:36:15.502Z,34.66
2019-04-21T11:37:14.460Z,34.11
2019-04-21T11:38:18.963Z,34.01
2019-04-21T11:39:25.671Z,33.34
2019-04-21T11:40:18.005Z,33.56
2019-04-21T11:41:15.927Z,32.79
2019-04-21T11:42:15.558Z,32.96
2019-04-21T11:43:15.715Z,32.99
2019-04-21T11:44:16.219Z,32.02
2019-04-21T11:45:14.980Z,31.77
2019-04-21T11:46:16.263Z,33.34
2019-04-21T11:47:16.358Z,32.96
2019-04-21T11:48:16.517Z,31.82
2019-04-21T11:49:15.810Z,31.64
2019-04-21T11:50:15.334Z,31.53
2019-04-21T11:51:15.473Z,31.50
2019-04-21T11:52:16.547Z,32.34
2019-04-21T11:53:16.770Z,32.84
2019-04-21T11:54:16.977Z,31.92
2019-04-21T11:55:16.615Z,31.06
2019-04-21T11:56:16.848Z,30.36
2019-04-21T11:57:22.742Z,31.50
2019-04-21T11:58:16.055Z,32.73
2019-04-21T11:59:15.975Z,33.39
2019-04-21T12:00:16.043Z,34.11
2019-04-21T12:01:16.116Z,33.36
2019-04-21T12:02:17.261Z,32.75
2019-04-21T12:03:17.374Z,33.14
2019-04-21T12:04:17.898Z,33.04
2019-04-21T12:05:17.336Z,32.49
2019-04-21T12:06:17.449Z,31.45
2019-04-21T12:07:17.547Z,30.85
2019-04-21T12:08:24.958Z,30.70
2019-04-21T12:09:16.951Z,30.31
2019-04-21T12:10:17.689Z,30.31
2019-04-21T12:11:17.751Z,31.06
2019-04-21T12:12:17.042Z,31.90
2019-04-21T12:13:18.217Z,32.57
2019-04-21T12:14:18.311Z,32.76
2019-04-21T12:15:17.107Z,32.39
2019-04-21T12:16:17.196Z,32.76
2019-04-21T12:17:18.339Z,32.50
2019-04-21T12:18:17.847Z,31.66
2019-04-21T12:19:18.652Z,31.19
2019-04-21T12:20:18.776Z,30.90
2019-04-21T12:21:17.529Z,30.64
2019-04-21T12:22:22.180Z,31.77
2019-04-21T12:23:18.398Z,32.86
2019-04-21T12:24:17.742Z,31.63
2019-04-21T12:25:18.833Z,31.16
2019-04-21T12:26:18.067Z,30.11
2019-04-21T12:27:18.193Z,30.17
2019-04-21T12:28:18.024Z,31.53
2019-04-21T12:29:18.912Z,30.29
2019-04-21T12:30:18.165Z,29.69
2019-04-21T12:31:18.235Z,29.89
2019-04-21T12:32:18.309Z,30.18
2019-04-21T12:33:18.377Z,30.28
2019-04-21T12:34:19.465Z,30.39
2019-04-21T12:35:19.685Z,30.46
2019-04-21T12:36:19.820Z,30.65
2019-04-21T12:37:19.235Z,31.14
2019-04-21T12:38:29.892Z,30.47
2019-04-21T12:39:18.835Z,29.04
2019-04-21T12:40:18.874Z,28.15
2019-04-21T12:41:20.118Z,28.23
2019-04-21T12:42:19.021Z,28.57
2019-04-21T12:43:19.086Z,27.87
2019-04-21T12:44:20.187Z,29.50
2019-04-21T12:45:19.321Z,30.29
2019-04-21T12:46:20.034Z,30.41
2019-04-21T12:47:19.639Z,29.95
2019-04-21T12:48:20.104Z,29.93
2019-04-21T12:49:20.104Z,30.32
2019-04-21T12:50:19.586Z,28.79
2019-04-21T12:51:19.791Z,27.36
2019-04-21T12:52:19.887Z,27.54
2019-04-21T12:53:21.215Z,26.62
2019-04-21T12:54:19.872Z,27.28
2019-04-21T12:55:23.245Z,28.25
2019-04-21T12:56:20.014Z,27.68
2019-04-21T12:57:21.331Z,27.69
2019-04-21T12:58:21.367Z,28.18
2019-04-21T12:59:21.193Z,27.54
2019-04-21T13:00:20.740Z,26.49
2019-04-21T13:01:20.960Z,25.90
2019-04-21T13:02:20.444Z,25.72
2019-04-21T13:03:23.334Z,24.78
2019-04-21T13:04:21.765Z,25.32
2019-04-21T13:05:21.864Z,24.85
2019-04-21T13:06:21.369Z,25.62
2019-04-21T13:07:21.618Z,27.37
2019-04-21T13:08:21.762Z,27.58
2019-04-21T13:09:22.234Z,25.25
2019-04-21T13:10:22.154Z,24.12
2019-04-21T13:11:21.383Z,24.15
2019-04-21T13:12:21.158Z,22.60
2019-04-21T13:13:22.070Z,24.84
2019-04-21T13:14:22.130Z,24.82
2019-04-21T13:15:21.856Z,25.39
2019-04-21T13:16:21.447Z,26.92
2019-04-21T13:17:21.532Z,27.20
2019-04-21T13:18:22.654Z,27.61
2019-04-21T13:19:21.665Z,26.92
2019-04-21T13:20:21.733Z,25.92
2019-04-21T13:21:22.428Z,23.95
2019-04-21T13:22:21.878Z,24.06
2019-04-21T13:23:23.127Z,24.35
2019-04-21T13:24:22.094Z,24.28
2019-04-21T13:25:23.515Z,22.94
2019-04-21T13:26:29.572Z,21.69
2019-04-21T13:27:22.639Z,20.15
2019-04-21T13:28:22.912Z,19.10
2019-04-21T13:29:22.379Z,18.91
2019-04-21T13:30:22.452Z,20.95
2019-04-21T13:31:22.529Z,22.33
2019-04-21T13:32:22.607Z,22.16
2019-04-21T13:33:23.023Z,22.27
2019-04-21T13:34:24.048Z,21.48
2019-04-21T13:35:23.283Z,21.99
2019-04-21T13:36:23.418Z,21.92
2019-04-21T13:37:23.668Z,22.41
2019-04-21T13:38:32.527Z,21.52
2019-04-21T13:39:53.731Z,21.78
2019-04-21T13:40:41.611Z,21.91
2019-04-21T13:41:36.435Z,20.35
2019-04-21T13:42:31.162Z,19.76
2019-04-21T13:43:23.393Z,20.72
2019-04-21T13:44:23.689Z,21.89
2019-04-21T13:45:23.976Z,22.27
2019-04-21T13:46:24.930Z,22.34
2019-04-21T13:47:24.909Z,22.55
2019-04-21T13:48:24.395Z,23.12
2019-04-21T13:49:25.255Z,22.66
2019-04-21T13:50:23.902Z,22.47
2019-04-21T13:51:25.082Z,22.47
2019-04-21T13:52:24.717Z,22.48
2019-04-21T13:53:25.025Z,21.63
2019-04-21T13:54:25.426Z,21.03
2019-04-21T13:55:25.565Z,21.33
2019-04-21T13:56:24.746Z,20.84
2019-04-21T13:57:24.413Z,21.13
2019-04-21T13:58:24.484Z,20.46
2019-04-21T13:59:24.564Z,19.60